Skip Navigation LinksHome page > Weather > Current weather Skip Navigation Links

Current Weather

Ndjamena, Chad

For information only: do not use for flight planning or navigation.
Latest weather
Observation time Wednesday, April 16, 2014 2:00 PM WAT
Local time Wednesday, April 16, 2014 2:32 PM WAT
Flight conditions Visual Meteorological Conditions
Winds
Wind direction Southeast (140°)
Wind speed 5 mph
Visibility 6.2 mi.
Sky condition
Ceiling unlimited
Cloud layer scattered clouds 5,000 ft.
Cloud layer scattered clouds 25,000 ft.
Temperature 108°F
Dewpoint 70°F
Altimeter 29.71 in.Hg
Derived measurements
Relative humidity 30%
Heat index 108°F
Density altitude 3598 ft.
Remarks
No significant changes expected in the next two hours.
METAR FTTJ 161300Z 14004KT 9999 SCT050 SCT250 42/21 Q1006 NOSIG

Settings

Location code

InnerDrive.Weather 4.0.4869.0 Release CLR 4.0.30319.18449
Copyright ©2013 Inner Drive Technology. All rights reserved. Portions Copyright ©1986-2013 David Braverman.

Find weather

Site navigation


Skip Navigation Links

Place info

Page info

PayPal - The safer, easier way to pay online!

Return home.

Copyright ©2014 Inner Drive Technology. Purveyors of fine, hand-crafted computer software. Page printed 2014-04-16T13:32:40 UTC.